Time;durP1;ratioP1;P1;durP2;ratioP2;P2;SDS_P1;SDS_P2;PMS_P1;PMS_P2;Temp;Humidity;BMP_temperature;BMP_pressure;BME280_temperature;BME280_humidity;BME280_pressure;Samples;Min_cycle;Max_cycle;Signal;HPM_P1;HPM_P2
2023/05/24 00:01:57;;;;;;;14.80;3.03;;;13.20;62.30;;;12.70;48.76;101326.94;5052943;28;20040;-93
2023/05/24 00:04:28;;;;;;;18.88;3.67;;;13.20;62.50;;;12.66;48.92;101315.00;5037764;28;20095;-92
2023/05/24 00:06:57;;;;;;;;;;;13.20;62.60;;;12.63;49.14;101322.38;5051986;28;20117;-92
2023/05/24 00:09:25;;;;;;;17.02;3.03;;;13.20;62.90;;;12.61;49.27;101324.44;5057666;28;19924;-92
2023/05/24 00:11:53;;;;;;;13.00;2.88;;;13.10;63.00;;;12.60;49.31;101324.66;5061392;28;20044;-94
2023/05/24 00:14:20;;;;;;;15.70;4.13;;;13.10;63.20;;;12.55;49.44;101319.09;5081544;28;20098;-93
2023/05/24 00:16:48;;;;;;;12.38;3.08;;;13.10;63.50;;;12.55;49.68;101319.91;5068502;28;20036;-92
2023/05/24 00:19:17;;;;;;;11.88;2.80;;;13.10;63.60;;;12.52;49.32;101325.66;5071605;28;20047;-90
2023/05/24 00:21:44;;;;;;;12.57;3.25;;;13.10;63.40;;;12.50;49.84;101322.38;5062738;28;20044;-90
2023/05/24 00:24:12;;;;;;;11.15;2.95;;;13.00;63.70;;;12.48;49.73;101313.72;5053934;28;20110;-92
2023/05/24 00:26:41;;;;;;;13.65;3.15;;;13.00;63.80;;;12.50;50.09;101310.84;5050870;28;20049;-93
2023/05/24 00:29:09;;;;;;;21.55;3.55;;;13.00;63.90;;;12.46;50.03;101305.06;5046401;28;20037;-92
2023/05/24 00:31:36;;;;;;;18.50;3.53;;;13.00;64.20;;;12.43;49.93;101293.94;5052364;28;20480;-93
2023/05/24 00:34:04;;;;;;;20.15;4.07;;;13.00;64.10;;;12.40;50.34;101305.91;5051010;28;20044;-93
2023/05/24 00:36:31;;;;;;;13.48;3.25;;;13.00;64.40;;;12.38;50.31;101306.06;5045481;28;20062;-93
2023/05/24 00:38:59;;;;;;;17.10;3.42;;;12.90;64.60;;;12.36;49.86;101300.13;5082276;28;20040;-92
2023/05/24 00:41:27;;;;;;;22.25;3.45;;;12.90;64.20;;;12.35;50.46;101297.66;5058549;28;20062;-92
2023/05/24 00:43:55;;;;;;;15.10;3.38;;;12.90;64.60;;;12.31;50.49;101297.22;5064237;28;20040;-92
2023/05/24 00:46:29;;;;;;;13.00;3.28;;;12.90;64.80;;;12.32;50.48;101303.41;5052436;28;20040;-94
2023/05/24 00:48:57;;;;;;;19.45;4.03;;;12.80;64.80;;;12.31;50.55;101305.25;5053894;28;20045;-92
2023/05/24 00:51:29;;;;;;;17.73;3.83;;;12.80;65.00;;;12.27;50.65;101298.66;5050270;28;20109;-94
2023/05/24 00:53:56;;;;;;;14.52;3.10;;;12.80;65.10;;;12.26;50.88;101302.34;5059430;28;20043;-92
2023/05/24 00:56:25;;;;;;;15.05;2.97;;;12.80;65.20;;;12.23;51.21;101302.75;5040312;28;20033;-96
2023/05/24 00:58:54;;;;;;;16.67;3.95;;;12.80;65.50;;;12.20;51.13;101292.47;5074197;28;20058;-92
2023/05/24 01:01:25;;;;;;;17.55;3.30;;;12.70;65.60;;;12.18;51.14;101297.19;5062293;28;20047;-91
2023/05/24 01:03:53;;;;;;;13.95;3.25;;;12.70;65.70;;;12.11;51.29;101291.00;5051342;28;20064;-93
2023/05/24 01:06:20;;;;;;;13.27;3.33;;;12.70;65.80;;;12.09;51.49;101288.50;5053155;28;20110;-91
2023/05/24 01:09:10;;;;;;;13.50;2.80;;;12.60;65.90;;;12.05;51.43;101291.78;5057589;28;20044;-94
2023/05/24 01:11:53;;;;;;;23.20;3.75;;;12.60;66.20;;;12.02;51.74;101292.22;5058929;28;20051;-94
2023/05/24 01:14:28;;;;;;;11.77;3.22;;;12.50;66.30;;;11.97;51.93;101284.78;5056399;28;20041;-92
2023/05/24 01:17:09;;;;;;;16.23;2.97;;;12.60;66.60;;;11.96;51.64;101283.13;5043702;28;20078;-91
2023/05/24 01:20:03;;;;;;;13.63;3.28;;;12.50;66.60;;;11.93;52.02;101288.06;5051622;28;20044;-93
2023/05/24 01:23:25;;;;;;;14.07;3.03;;;12.40;66.70;;;11.88;52.02;101280.63;5053702;28;20052;-94
2023/05/24 01:26:30;;;;;;;11.18;3.10;;;12.40;66.80;;;11.81;52.17;101283.25;5047086;28;20338;-91
2023/05/24 01:29:02;;;;;;;13.73;3.28;;;12.30;67.00;;;11.77;52.36;101283.84;5030516;28;20053;-92
2023/05/24 01:31:29;;;;;;;15.60;3.05;;;12.30;67.20;;;11.75;52.40;101281.34;5062174;28;20500;-92
2023/05/24 01:34:00;;;;;;;10.10;3.22;;;12.30;67.50;;;11.73;52.53;101278.06;5059680;28;20124;-94
2023/05/24 01:36:27;;;;;;;12.80;3.40;;;12.20;67.40;;;11.68;52.66;101277.84;5040532;28;20036;-91
2023/05/24 01:38:55;;;;;;;12.23;2.63;;;12.20;67.70;;;11.66;52.76;101271.84;5052035;28;20068;-93
2023/05/24 01:41:36;;;;;;;13.20;3.30;;;12.20;67.70;;;11.61;52.88;101282.31;5060118;28;20051;-93
2023/05/24 01:44:15;;;;;;;11.57;3.40;;;12.10;67.80;;;11.59;52.85;101281.69;5053913;28;20063;-93
2023/05/24 01:46:47;;;;;;;14.52;3.22;;;12.10;67.90;;;11.56;52.91;101282.09;5043660;28;20051;-92
2023/05/24 01:49:32;;;;;;;13.40;2.88;;;12.10;68.00;;;11.53;52.77;101277.16;5048936;28;20485;-93
2023/05/24 01:52:03;;;;;;;18.23;4.03;;;12.00;68.00;;;11.52;53.09;101272.84;5060762;28;20050;-91
2023/05/24 01:54:37;;;;;;;17.13;3.85;;;12.00;68.20;;;11.49;53.04;101258.03;5058958;28;20051;-90
2023/05/24 01:57:10;;;;;;;15.35;3.20;;;12.00;68.30;;;11.49;53.05;101260.69;5055318;28;20047;-91
2023/05/24 01:59:42;;;;;;;13.75;3.38;;;12.00;68.30;;;11.48;53.28;101260.91;5048465;28;20045;-91
2023/05/24 02:02:11;;;;;;;14.63;3.55;;;12.00;68.50;;;11.46;53.48;101265.59;5052143;28;20036;-91
2023/05/24 02:04:38;;;;;;;16.83;3.88;;;11.90;68.70;;;11.44;53.54;101264.97;5043863;28;20041;-92
2023/05/24 02:07:07;;;;;;;20.38;3.78;;;11.90;68.90;;;11.42;53.62;101265.19;5044001;28;20463;-91
2023/05/24 02:09:34;;;;;;;14.07;3.35;;;11.90;68.90;;;11.39;53.63;101248.72;5040930;28;20037;-93
2023/05/24 02:12:02;;;;;;;18.77;3.28;;;11.90;69.00;;;11.38;53.57;101255.91;5046858;28;20041;-90
2023/05/24 02:14:30;;;;;;;18.17;3.45;;;11.90;69.10;;;11.37;53.51;101250.75;5078498;28;20045;-92
2023/05/24 02:16:59;;;;;;;15.43;3.65;;;11.90;69.10;;;11.36;53.79;101249.94;5068207;28;20082;-91
2023/05/24 02:19:26;;;;;;;16.42;3.42;;;11.80;69.20;;;11.35;53.88;101256.28;5054658;28;20045;-94
2023/05/24 02:21:54;;;;;;;12.00;3.50;;;11.80;69.20;;;11.33;53.80;101258.34;5051536;28;20135;-94
2023/05/24 02:24:21;;;;;;;11.15;2.83;;;11.80;69.30;;;11.28;54.02;101250.94;5051660;28;20151;-92
2023/05/24 02:26:49;;;;;;;15.45;3.85;;;11.80;69.50;;;11.26;53.88;101260.13;5049361;28;20094;-90
2023/05/24 02:29:16;;;;;;;16.50;4.15;;;11.80;69.50;;;11.27;54.08;101270.66;5068394;22;20072;-76
2023/05/24 02:31:44;;;;;;;12.80;3.80;;;11.80;69.50;;;11.26;54.09;101271.63;5072714;28;20052;-76
2023/05/24 02:34:12;;;;;;;16.02;3.50;;;11.70;69.50;;;11.24;54.00;101262.19;5060147;28;20051;-76
2023/05/24 02:36:39;;;;;;;14.90;4.20;;;11.70;69.60;;;11.19;54.14;101261.97;5048178;28;20056;-76
2023/05/24 02:39:07;;;;;;;14.27;3.92;;;11.70;69.70;;;11.18;54.25;101273.66;5029080;28;20063;-76
2023/05/24 02:41:34;;;;;;;16.25;3.80;;;11.70;69.90;;;11.17;54.49;101278.16;5055314;28;20120;-76
2023/05/24 02:44:01;;;;;;;11.95;3.75;;;11.60;69.90;;;11.14;54.43;101277.75;5039429;28;20527;-76
2023/05/24 02:46:29;;;;;;;15.10;4.18;;;11.60;69.90;;;11.11;54.36;101280.78;5040147;28;20041;-76
2023/05/24 02:48:56;;;;;;;16.52;4.43;;;11.60;70.10;;;11.08;54.51;101280.16;5017287;28;20041;-76
2023/05/24 02:51:25;;;;;;;15.43;4.13;;;11.60;70.10;;;11.06;54.69;101278.69;5046079;28;20485;-76
2023/05/24 02:53:52;;;;;;;15.20;3.83;;;11.60;70.30;;;11.02;54.76;101275.59;5030108;28;20102;-76
2023/05/24 02:56:20;;;;;;;19.52;3.83;;;11.50;70.50;;;10.99;55.12;101269.84;5035289;28;20584;-76
2023/05/24 02:58:48;;;;;;;17.75;4.05;;;11.50;70.80;;;10.97;55.07;101272.66;5022072;28;20041;-76
2023/05/24 03:01:15;;;;;;;17.55;4.65;;;11.50;70.70;;;10.96;55.14;101276.38;5039055;28;20040;-76
2023/05/24 03:03:42;;;;;;;16.48;4.20;;;11.50;70.90;;;10.94;55.24;101272.25;5056912;28;20630;-76
2023/05/24 03:06:12;;;;;;;13.52;3.95;;;11.50;71.10;;;10.93;55.33;101265.25;5028986;28;20056;-76
2023/05/24 03:08:42;;;;;;;17.63;4.45;;;11.50;71.10;;;10.93;55.30;101267.91;5033711;28;20065;-76
2023/05/24 03:11:09;;;;;;;17.35;4.38;;;11.70;71.30;;;10.91;55.22;101268.13;5051192;28;20573;-76
2023/05/24 03:13:36;;;;;;;14.52;4.40;;;11.50;71.30;;;10.91;55.46;101272.63;5032910;28;20053;-76
2023/05/24 03:16:03;;;;;;;12.23;4.03;;;11.50;71.30;;;10.92;55.69;101275.09;5045756;28;20041;-76
2023/05/24 03:18:31;;;;;;;16.08;4.47;;;11.50;71.50;;;10.92;55.64;101268.94;5022335;28;20033;-76
2023/05/24 03:20:58;;;;;;;13.07;4.25;;;11.40;71.40;;;10.92;55.58;101269.75;5040916;28;20128;-76
2023/05/24 03:23:31;;;;;;;13.48;4.03;;;11.50;71.50;;;10.93;55.69;101267.91;5027879;28;20131;-76
2023/05/24 03:25:59;;;;;;;21.27;5.07;;;11.50;71.60;;;10.94;55.67;101266.91;5049345;28;20044;-76
2023/05/24 03:28:27;;;;;;;16.90;4.28;;;11.50;71.60;;;10.93;55.79;101255.41;5031345;28;20429;-76
2023/05/24 03:30:54;;;;;;;18.27;4.40;;;11.50;71.70;;;10.93;55.91;101267.91;5034600;28;20053;-76
2023/05/24 03:33:22;;;;;;;12.20;3.60;;;11.50;71.90;;;10.91;55.87;101259.28;5034634;28;20053;-76
2023/05/24 03:35:55;;;;;;;17.75;4.35;;;11.50;71.80;;;10.92;56.09;101260.94;5015380;28;20139;-76
2023/05/24 03:38:24;;;;;;;17.45;4.93;;;11.50;72.00;;;10.92;55.97;101255.59;5033756;28;20352;-76
2023/05/24 03:40:52;;;;;;;22.50;5.07;;;11.40;71.90;;;10.93;56.07;101266.09;5032045;28;20071;-76
2023/05/24 03:43:20;;;;;;;15.70;4.10;;;11.50;72.10;;;10.95;56.17;101263.22;5033269;28;20506;-77
2023/05/24 03:45:52;;;;;;;25.00;5.40;;;11.70;72.30;;;10.93;56.21;101266.09;5032256;28;20053;-77
2023/05/24 03:48:20;;;;;;;22.85;4.75;;;11.50;72.30;;;10.94;56.29;101266.91;5033579;28;20049;-77
2023/05/24 03:50:48;;;;;;;15.48;3.95;;;11.50;72.40;;;10.95;56.44;101273.91;5038094;28;20650;-77
2023/05/24 03:53:15;;;;;;;15.45;4.30;;;11.50;72.50;;;10.95;56.46;101271.22;5033705;28;20072;-77
2023/05/24 03:55:45;;;;;;;22.83;4.57;;;11.50;72.40;;;10.95;56.46;101271.22;5031757;28;20063;-77
2023/05/24 03:58:13;;;;;;;13.98;4.57;;;11.50;72.50;;;10.96;56.50;101280.88;5029027;28;20099;-77
2023/05/24 04:00:42;;;;;;;15.57;4.28;;;11.50;72.50;;;10.97;56.55;101285.19;5043461;28;20040;-77
2023/05/24 04:03:10;;;;;;;28.08;5.25;;;11.50;72.70;;;10.97;56.62;101282.53;5033436;28;20052;-77
2023/05/24 04:05:39;;;;;;;19.02;4.35;;;11.50;72.80;;;10.98;56.80;101284.16;5041289;28;20060;-77
2023/05/24 04:08:19;;;;;;;18.58;4.85;;;11.50;72.90;;;11.00;56.95;101290.16;5040381;28;20044;-78
2023/05/24 04:10:47;;;;;;;21.55;4.55;;;11.50;73.10;;;11.01;57.16;101294.47;5039235;28;20055;-78
2023/05/24 04:13:14;;;;;;;16.90;5.07;;;11.50;73.30;;;10.99;57.31;101293.84;5025040;28;20095;-78
2023/05/24 04:15:46;;;;;;;19.13;4.57;;;11.50;73.50;;;11.00;57.42;101299.00;5051180;28;20040;-79
2023/05/24 04:18:14;;;;;;;19.27;5.13;;;11.50;73.50;;;11.02;57.49;101290.78;5050507;28;20037;-79
2023/05/24 04:20:41;;;;;;;20.73;4.65;;;11.60;73.70;;;11.04;57.74;101294.09;5038166;28;20043;-77
2023/05/24 04:23:10;;;;;;;19.48;4.60;;;11.60;73.70;;;11.06;57.74;101292.88;5026860;28;20159;-78
2023/05/24 04:25:44;;;;;;;23.60;4.45;;;11.60;73.90;;;11.08;58.09;101296.19;5044276;28;20102;-77
2023/05/24 04:28:12;;;;;;;23.50;4.93;;;11.60;74.20;;;11.11;57.98;101294.13;5026360;28;20494;-77
2023/05/24 04:30:40;;;;;;;21.70;5.22;;;11.70;74.10;;;11.14;57.99;101293.75;5048622;28;20045;-78
2023/05/24 04:33:09;;;;;;;23.77;5.93;;;11.70;74.40;;;11.16;58.42;101289.03;5047106;28;20571;-78
2023/05/24 04:35:36;;;;;;;19.80;4.63;;;11.70;74.70;;;11.18;58.53;101290.50;5028498;28;20036;-77
2023/05/24 04:38:04;;;;;;;17.88;4.43;;;11.70;74.80;;;11.21;58.64;101298.09;5045898;28;20052;-78
2023/05/24 04:40:32;;;;;;;20.00;4.78;;;11.80;75.00;;;11.23;58.75;101287.25;5044650;28;20029;-76
2023/05/24 04:42:59;;;;;;;17.73;4.50;;;11.80;75.10;;;11.29;58.36;101291.81;5030793;28;20052;-76
2023/05/24 04:45:27;;;;;;;16.75;4.18;;;11.80;74.50;;;11.36;58.07;101298.00;5059120;28;20040;-76
2023/05/24 04:47:54;;;;;;;20.27;5.00;;;11.90;74.30;;;11.43;57.79;101295.38;5029341;28;20076;-73
2023/05/24 04:50:23;;;;;;;13.95;4.22;;;12.00;74.00;;;11.50;58.22;101299.72;5038638;28;20040;-74
2023/05/24 04:52:50;;;;;;;14.05;4.43;;;12.10;74.50;;;11.54;58.08;101306.34;5031700;28;20068;-76
2023/05/24 04:55:18;;;;;;;15.80;4.53;;;12.10;74.40;;;11.53;57.96;101307.38;5038052;28;20150;-75
2023/05/24 04:57:45;;;;;;;21.33;4.65;;;12.10;74.30;;;11.51;58.47;101306.72;5046965;28;20044;-76
2023/05/24 05:00:14;;;;;;;21.67;4.97;;;12.10;74.70;;;11.50;58.29;101309.59;5028195;28;20818;-76
2023/05/24 05:02:41;;;;;;;14.43;5.03;;;12.10;74.70;;;11.53;58.30;101311.88;5053067;28;20040;-75
2023/05/24 05:05:09;;;;;;;20.50;4.90;;;12.10;74.70;;;11.54;58.28;101305.50;5053757;28;20040;-76
2023/05/24 05:07:37;;;;;;;24.98;5.18;;;12.10;74.40;;;11.59;58.36;101313.75;5056371;28;20044;-76
2023/05/24 05:10:06;;;;;;;18.10;4.60;;;12.20;74.50;;;11.62;58.37;101317.91;5048312;28;20039;-76
2023/05/24 05:12:33;;;;;;;19.35;5.10;;;12.20;74.50;;;11.64;58.44;101310.50;5038393;28;20140;-76
2023/05/24 05:15:01;;;;;;;20.20;5.35;;;12.30;74.70;;;11.69;58.90;101310.72;5011986;28;20132;-74
2023/05/24 05:17:28;;;;;;;22.90;5.97;;;12.30;75.40;;;11.74;59.07;101316.31;5046570;28;20127;-77
2023/05/24 05:19:55;;;;;;;24.45;5.28;;;12.30;75.30;;;11.81;58.81;101314.50;5047196;28;20048;-77
2023/05/24 05:22:22;;;;;;;23.67;6.35;;;12.40;75.10;;;11.88;58.91;101311.88;5049770;28;20112;-76
2023/05/24 05:24:52;;;;;;;30.13;6.18;;;12.50;75.30;;;12.02;58.62;101308.25;5041811;28;20041;-76
2023/05/24 05:27:19;;;;;;;31.63;6.25;;;12.60;74.70;;;12.11;58.19;101313.22;5044571;28;20040;-77
2023/05/24 05:29:47;;;;;;;33.97;7.30;;;12.70;74.30;;;12.22;58.14;101313.66;5042890;28;20375;-77
2023/05/24 05:32:15;;;;;;;26.67;6.25;;;12.80;74.50;;;12.37;58.27;101309.78;5042281;28;20045;-77
2023/05/24 05:34:42;;;;;;;34.30;6.45;;;12.90;74.60;;;12.46;58.47;101318.47;5027094;28;20637;-76
2023/05/24 05:37:09;;;;;;;28.38;7.07;;;13.00;74.90;;;12.61;58.53;101315.59;5043891;28;20129;-76
2023/05/24 05:39:37;;;;;;;27.25;7.18;;;13.20;74.90;;;12.68;58.00;101315.59;5058641;28;20094;-76
2023/05/24 05:42:06;;;;;;;24.35;6.90;;;13.20;74.30;;;12.86;58.09;101313.16;5040247;28;20049;-76
2023/05/24 05:44:33;;;;;;;23.70;6.65;;;13.40;74.10;;;13.01;57.33;101310.25;5048007;28;20037;-77
2023/05/24 05:47:06;;;;;;;29.70;7.45;;;13.60;73.50;;;13.17;56.80;101303.66;5048060;28;20106;-77
2023/05/24 05:49:35;;;;;;;24.60;6.50;;;13.70;72.90;;;13.26;56.26;101300.59;5042161;28;20486;-77
2023/05/24 05:52:02;;;;;;;26.48;7.13;;;13.80;72.20;;;13.34;56.38;101291.53;5046410;28;20041;-76
2023/05/24 05:54:30;;;;;;;29.85;6.80;;;13.90;72.40;;;13.49;57.15;101302.00;5047626;28;20132;-76
2023/05/24 05:56:58;;;;;;;32.15;7.32;;;14.10;73.10;;;13.63;56.06;101296.38;5053871;28;20059;-77
2023/05/24 05:59:26;;;;;;;25.83;6.93;;;14.20;71.90;;;13.75;55.66;101295.72;5048401;28;20095;-77
2023/05/24 06:01:53;;;;;;;24.30;6.80;;;14.30;71.40;;;13.88;55.45;101299.19;5031727;28;20079;-77
2023/05/24 06:04:21;;;;;;;27.40;6.97;;;14.50;71.30;;;13.99;54.42;101305.75;5044869;28;20039;-75
2023/05/24 06:06:49;;;;;;;26.30;6.18;;;14.60;69.90;;;14.00;54.00;101311.91;5051838;28;20127;-75
2023/05/24 06:09:16;;;;;;;25.80;6.50;;;14.60;69.50;;;14.01;53.53;101318.97;5048321;28;20049;-76
2023/05/24 06:11:43;;;;;;;28.20;7.15;;;14.70;69.10;;;14.03;54.07;101317.69;5048612;28;20048;-76
2023/05/24 06:14:12;;;;;;;31.42;6.25;;;14.70;69.50;;;14.03;53.27;101324.91;5047092;28;20122;-77
2023/05/24 06:16:42;;;;;;;33.10;6.57;;;14.60;68.30;;;13.98;53.20;101319.38;5043074;28;20063;-75
2023/05/24 06:19:09;;;;;;;24.45;6.45;;;14.70;68.50;;;13.97;54.08;101309.69;5047914;28;20064;-76
2023/05/24 06:21:36;;;;;;;32.38;6.93;;;14.70;69.20;;;13.96;54.05;101308.00;5026880;28;20045;-76
2023/05/24 06:24:04;;;;;;;30.20;6.68;;;14.70;69.30;;;13.93;53.80;101317.31;5046211;28;20068;-76
2023/05/24 06:26:31;;;;;;;29.73;6.65;;;14.60;68.90;;;13.91;54.00;101314.03;5047357;28;20136;-77
2023/05/24 06:28:58;;;;;;;23.17;6.53;;;14.60;69.10;;;13.90;53.55;101307.00;5031783;28;20135;-76
2023/05/24 06:31:26;;;;;;;23.00;6.50;;;14.60;68.40;;;13.87;54.32;101316.31;5030787;28;20401;-76
2023/05/24 06:33:54;;;;;;;27.45;6.20;;;14.60;69.40;;;13.86;53.86;101309.31;5051524;28;20047;-76
2023/05/24 06:36:21;;;;;;;21.60;6.15;;;14.60;68.80;;;13.83;53.42;101312.41;5054438;28;20056;-76
2023/05/24 06:38:49;;;;;;;28.33;6.32;;;14.50;68.30;;;13.82;53.57;101318.00;5039789;28;20136;-77
2023/05/24 06:41:16;;;;;;;26.70;6.53;;;14.50;68.70;;;13.81;53.80;101325.22;5044762;28;20029;-77
2023/05/24 06:43:44;;;;;;;27.90;6.45;;;14.50;68.90;;;13.81;54.07;101329.72;5050331;28;20044;-76
2023/05/24 06:46:12;;;;;;;24.13;5.40;;;14.50;69.20;;;13.81;54.68;101332.41;5050264;28;20044;-76
2023/05/24 06:48:39;;;;;;;24.90;5.85;;;14.50;69.70;;;13.77;53.78;101332.03;5046719;28;20069;-77
2023/05/24 06:51:08;;;;;;;26.67;6.65;;;14.50;68.70;;;13.77;54.16;101333.88;5046756;28;20435;-77
2023/05/24 06:53:35;;;;;;;27.13;5.75;;;14.40;69.00;;;13.76;53.75;101340.25;5030624;28;20048;-76
2023/05/24 06:56:02;;;;;;;25.98;5.63;;;14.50;68.70;;;13.75;53.11;101325.22;5053072;28;20472;-77
2023/05/24 06:58:30;;;;;;;27.25;6.05;;;14.40;68.00;;;13.73;53.22;101328.13;5048371;28;20111;-77
2023/05/24 07:00:57;;;;;;;26.33;5.30;;;14.40;68.10;;;13.76;54.09;101322.34;5046950;28;20068;-77
2023/05/24 07:03:24;;;;;;;31.05;6.75;;;14.40;69.10;;;13.82;54.57;101324.19;5049269;28;20049;-77
2023/05/24 07:05:51;;;;;;;26.70;5.40;;;14.50;69.70;;;13.99;53.82;101318.34;5052119;28;20043;-76
2023/05/24 07:08:20;;;;;;;22.45;5.20;;;14.60;68.70;;;14.13;53.66;101323.41;5031664;28;20156;-76
2023/05/24 07:10:47;;;;;;;19.52;5.63;;;14.70;68.70;;;14.29;52.54;101321.28;5043480;28;20051;-77
2023/05/24 07:13:15;;;;;;;20.60;5.35;;;14.90;67.50;;;14.46;52.63;101327.81;5048551;28;20128;-77
2023/05/24 07:15:43;;;;;;;21.65;5.35;;;15.00;67.50;;;14.61;52.98;101322.97;5029848;28;20135;-77
2023/05/24 07:18:10;;;;;;;22.60;5.95;;;15.20;67.90;;;14.65;52.39;101320.69;5049770;28;20045;-77
2023/05/24 07:20:37;;;;;;;20.10;5.18;;;15.30;67.20;;;14.64;51.74;101329.75;5050791;28;20041;-77
2023/05/24 07:23:05;;;;;;;25.98;5.53;;;15.30;66.80;;;14.65;51.25;101332.25;5047854;28;20102;-76
2023/05/24 07:25:34;;;;;;;26.83;4.90;;;15.30;65.80;;;14.67;51.72;101337.41;5051793;28;20615;-76
2023/05/24 07:28:01;;;;;;;19.80;5.43;;;15.30;66.20;;;14.65;51.70;101329.56;5030574;28;20040;-77
2023/05/24 07:30:29;;;;;;;24.90;5.63;;;15.40;66.00;;;14.67;50.85;101323.97;5046479;28;20119;-76
2023/05/24 07:32:56;;;;;;;22.20;5.15;;;15.40;64.80;;;14.70;50.65;101333.47;5044083;28;20062;-76
2023/05/24 07:35:24;;;;;;;21.60;4.80;;;15.40;64.80;;;14.77;50.27;101332.38;5050620;28;20619;-77
2023/05/24 07:37:51;;;;;;;23.50;5.28;;;15.40;64.40;;;14.75;49.62;101321.03;5047777;28;20061;-77
2023/05/24 07:40:19;;;;;;;19.40;5.07;;;15.40;63.60;;;14.75;50.77;101320.22;5050667;28;20036;-76
2023/05/24 07:42:49;;;;;;;25.15;5.05;;;15.40;64.80;;;14.71;50.76;101324.38;5045886;28;20115;-76
2023/05/24 07:45:17;;;;;;;22.15;4.65;;;15.40;64.80;;;14.71;50.43;101319.81;5049490;28;20037;-76
2023/05/24 07:47:44;;;;;;;17.00;4.50;;;15.40;64.50;;;14.84;49.97;101327.78;5027885;28;20060;-76
2023/05/24 07:50:12;;;;;;;22.92;5.45;;;15.50;64.00;;;14.90;49.88;101320.72;5033592;28;20041;-76
2023/05/24 07:52:39;;;;;;;21.45;5.50;;;15.60;64.00;;;14.89;48.93;101333.31;5044960;28;20072;-76
2023/05/24 07:55:07;;;;;;;22.92;4.75;;;15.60;62.80;;;14.97;48.54;101331.41;5055005;28;20462;-77
2023/05/24 07:57:34;;;;;;;21.45;4.93;;;15.60;62.20;;;15.12;48.67;101331.88;5046925;28;20043;-76
2023/05/24 08:00:09;;;;;;;17.92;5.35;;;15.80;62.40;;;15.25;47.20;101337.16;5031656;28;20057;-76
2023/05/24 08:02:38;;;;;;;21.25;4.45;;;15.90;60.50;;;15.28;47.19;101334.03;5046052;28;20052;-76
2023/05/24 08:05:08;;;;;;;25.88;5.68;;;15.90;60.50;;;15.35;47.08;101326.72;5050330;28;20147;-76
2023/05/24 08:07:36;;;;;;;21.73;5.03;;;16.00;60.40;;;15.41;47.34;101331.19;5035600;28;20072;-76
2023/05/24 08:10:03;;;;;;;18.13;4.47;;;16.00;60.50;;;15.40;48.33;101323.38;5049833;28;20486;-77
2023/05/24 08:12:31;;;;;;;13.60;3.97;;;16.00;62.00;;;15.39;48.17;101327.91;5047721;28;20044;-76
2023/05/24 08:14:58;;;;;;;20.40;4.43;;;16.10;61.60;;;15.35;47.14;101332.09;5047909;28;20041;-76
2023/05/24 08:17:27;;;;;;;20.58;4.80;;;16.10;60.30;;;15.31;48.64;101325.50;5033826;28;20041;-77
2023/05/24 08:19:54;;;;;;;23.42;5.53;;;16.00;62.00;;;15.42;49.16;101332.00;5049027;28;20041;-77
2023/05/24 08:22:22;;;;;;;17.55;4.88;;;16.10;62.90;;;15.53;47.77;101325.94;5049930;28;20037;-77
2023/05/24 08:24:49;;;;;;;23.02;5.15;;;16.20;60.80;;;15.49;47.32;101329.28;5044944;28;20072;-77
2023/05/24 08:27:16;;;;;;;21.63;4.97;;;16.20;60.60;;;15.42;47.64;101330.19;5038790;28;20045;-77
2023/05/24 08:32:18;;;;;;;23.20;4.93;;;16.10;60.90;;;15.31;47.28;101324.69;4960086;28;20066;-86
2023/05/24 08:34:46;;;;;;;17.98;4.93;;;16.00;60.00;;;15.23;47.35;101328.50;4959595;28;20075;-83
2023/05/24 08:37:14;;;;;;;16.95;4.53;;;16.00;60.30;;;15.15;47.72;101332.28;4971031;28;20118;-84
2023/05/24 08:39:41;;;;;;;22.83;4.43;;;15.90;60.60;;;15.12;47.19;101329.19;4955084;28;20575;-87
2023/05/24 08:42:09;;;;;;;16.25;4.00;;;15.90;60.20;;;15.09;47.21;101329.66;4953725;28;20130;-85
2023/05/24 08:44:41;;;;;;;18.10;4.68;;;15.80;60.20;;;15.05;47.11;101323.88;4950528;28;20055;-85
2023/05/24 08:47:09;;;;;;;18.00;4.00;;;15.80;60.00;;;14.99;46.92;101318.59;4950687;28;20145;-85
2023/05/24 08:49:37;;;;;;;26.55;5.22;;;15.70;59.50;;;14.94;47.00;101327.28;4950315;28;20050;-85
2023/05/24 08:52:07;;;;;;;21.13;4.57;;;15.70;59.70;;;14.90;47.64;101320.72;4950998;28;20415;-85
2023/05/24 08:54:36;;;;;;;19.67;4.72;;;15.60;60.80;;;14.88;47.84;101317.41;4945968;28;20416;-84
2023/05/24 08:57:05;;;;;;;17.33;4.68;;;15.60;60.70;;;14.87;48.02;101321.13;4951871;28;20043;-85
2023/05/24 08:59:32;;;;;;;15.85;5.00;;;15.60;61.40;;;14.86;48.18;101317.63;4949898;28;20045;-83
2023/05/24 09:02:01;;;;;;;19.95;4.38;;;15.60;61.30;;;14.87;47.43;101319.28;4954491;28;20035;-84
2023/05/24 09:04:29;;;;;;;24.02;5.05;;;15.60;60.30;;;14.92;47.69;101324.00;4950226;28;20069;-84
2023/05/24 09:06:58;;;;;;;18.05;3.97;;;15.60;61.00;;;14.99;47.96;101329.31;4947670;28;20428;-84
2023/05/24 09:09:28;;;;;;;18.48;4.90;;;15.60;61.20;;;15.00;48.15;101323.72;4957082;28;20050;-85
2023/05/24 09:12:00;;;;;;;19.43;5.33;;;15.70;61.40;;;15.05;47.63;101325.75;4949877;28;20035;-84
2023/05/24 09:14:27;;;;;;;22.02;5.25;;;15.70;60.70;;;15.09;49.29;101321.59;4950193;28;20357;-84
2023/05/24 09:16:55;;;;;;;21.88;4.72;;;15.70;62.70;;;15.12;49.67;101318.44;4950690;28;20051;-84
2023/05/24 09:19:22;;;;;;;21.13;5.13;;;15.80;63.40;;;15.14;49.49;101324.44;4952015;28;20075;-84
2023/05/24 09:21:52;;;;;;;26.52;5.55;;;15.80;63.10;;;15.18;49.68;101315.72;4953224;28;20412;-84
2023/05/24 09:24:19;;;;;;;17.17;4.82;;;15.90;63.20;;;15.24;49.57;101327.44;4950042;28;20528;-84
2023/05/24 09:26:50;;;;;;;20.05;5.22;;;15.90;63.00;;;15.25;48.38;101321.03;4950843;28;20401;-84
2023/05/24 09:29:23;;;;;;;19.33;5.05;;;16.00;61.70;;;15.29;48.96;101319.53;4930762;28;20051;-84
2023/05/24 09:31:55;;;;;;;14.63;4.53;;;16.00;62.30;;;15.35;47.74;101313.28;4948885;28;20489;-84
2023/05/24 09:34:22;;;;;;;14.57;4.65;;;16.00;60.80;;;15.43;48.30;101312.19;4932367;29;20397;-83
2023/05/24 09:36:52;;;;;;;17.33;4.78;;;16.10;61.40;;;15.49;46.34;101310.47;4947610;28;20424;-83
2023/05/24 09:39:21;;;;;;;18.30;4.57;;;16.10;59.00;;;15.52;45.52;101308.16;4953732;28;20085;-83
2023/05/24 09:41:56;;;;;;;15.80;4.20;;;16.20;57.90;;;15.55;45.93;101301.50;4948463;28;20098;-84
2023/05/24 09:44:25;;;;;;;21.05;4.70;;;16.20;58.30;;;15.58;45.91;101303.75;4949200;28;20052;-82
2023/05/24 09:46:52;;;;;;;18.63;4.63;;;16.30;58.40;;;15.60;47.48;101309.72;4945274;28;20062;-85
2023/05/24 09:49:21;;;;;;;18.23;4.55;;;16.30;60.40;;;15.59;47.20;101308.06;4955376;28;20083;-84
2023/05/24 09:51:48;;;;;;;17.35;4.75;;;16.30;60.00;;;15.57;45.36;101308.31;4947940;28;20122;-84
2023/05/24 09:54:16;;;;;;;20.67;5.05;;;16.30;57.50;;;15.52;45.12;101305.47;4946246;28;20063;-84
2023/05/24 09:56:46;;;;;;;19.25;4.75;;;16.30;57.50;;;15.50;46.49;101307.53;4943594;28;20645;-84
2023/05/24 09:59:15;;;;;;;16.70;4.50;;;16.20;58.90;;;15.49;46.50;101313.16;4954500;28;20043;-83
2023/05/24 10:01:43;;;;;;;20.85;5.32;;;16.20;58.90;;;15.42;45.62;101299.75;4948356;28;20123;-81
2023/05/24 10:04:10;;;;;;;17.45;4.70;;;16.20;57.70;;;15.41;45.16;101304.31;4950223;28;20043;-84
2023/05/24 10:06:38;;;;;;;17.15;4.43;;;16.10;57.20;;;15.39;45.67;101302.91;4931980;29;20595;-81
2023/05/24 10:09:08;;;;;;;16.67;4.22;;;16.10;57.70;;;15.38;45.17;101303.97;4949255;28;20164;-84
2023/05/24 10:11:36;;;;;;;18.38;4.63;;;16.10;57.20;;;15.39;44.89;101302.91;4939869;28;20043;-84
2023/05/24 10:14:05;;;;;;;16.88;4.57;;;16.10;57.00;;;15.44;44.30;101297.69;4954048;28;20039;-83
2023/05/24 10:16:36;;;;;;;19.40;5.05;;;16.10;56.10;;;15.40;45.23;101299.16;4950204;28;20496;-83